createdAt,value
2022-09-06T00:00:18.452Z,22.00
2022-09-06T00:02:45.963Z,21.90
2022-09-06T00:05:13.647Z,22.00
2022-09-06T00:07:41.446Z,22.00
2022-09-06T00:10:08.948Z,22.00
2022-09-06T00:12:36.157Z,22.00
2022-09-06T00:15:04.071Z,21.90
2022-09-06T00:17:32.027Z,21.90
2022-09-06T00:19:58.857Z,21.80
2022-09-06T00:22:25.597Z,21.80
2022-09-06T00:24:52.311Z,21.80
2022-09-06T00:27:19.152Z,21.80
2022-09-06T00:29:45.933Z,21.80
2022-09-06T00:32:12.624Z,21.70
2022-09-06T00:34:39.340Z,21.70
2022-09-06T00:37:06.077Z,21.70
2022-09-06T00:39:32.847Z,21.60
2022-09-06T00:41:59.692Z,21.60
2022-09-06T00:44:26.502Z,21.60
2022-09-06T00:46:55.275Z,21.60
2022-09-06T00:49:30.349Z,21.50
2022-09-06T00:52:02.219Z,21.40
2022-09-06T00:54:29.829Z,21.40
2022-09-06T00:56:59.247Z,21.30
2022-09-06T00:59:29.009Z,21.30
2022-09-06T01:01:55.977Z,21.30
2022-09-06T01:04:24.276Z,21.30
2022-09-06T01:07:25.344Z,21.30
2022-09-06T01:10:26.442Z,21.20
2022-09-06T01:13:13.964Z,21.20
2022-09-06T01:15:52.693Z,21.20
2022-09-06T01:18:19.422Z,21.20
2022-09-06T01:20:46.233Z,21.20
2022-09-06T01:23:33.181Z,21.20
2022-09-06T01:26:02.789Z,21.20
2022-09-06T01:28:49.122Z,21.20
2022-09-06T01:31:31.957Z,21.20
2022-09-06T01:34:08.178Z,21.20
2022-09-06T01:37:14.190Z,21.20
2022-09-06T01:39:42.153Z,21.10
2022-09-06T01:42:31.517Z,21.00
2022-09-06T01:45:20.708Z,21.10
2022-09-06T01:48:08.930Z,21.00
2022-09-06T01:50:54.561Z,21.00
2022-09-06T01:53:39.940Z,21.00
2022-09-06T01:56:45.519Z,21.00
2022-09-06T01:59:18.300Z,20.90
2022-09-06T02:02:03.989Z,20.90
2022-09-06T02:04:52.994Z,20.90
2022-09-06T02:07:26.295Z,20.90
2022-09-06T02:10:08.030Z,20.90
2022-09-06T02:12:40.714Z,20.90
2022-09-06T02:15:11.700Z,20.90
2022-09-06T02:17:45.324Z,20.80
2022-09-06T02:20:26.799Z,20.90
2022-09-06T02:22:57.407Z,20.80
2022-09-06T02:25:30.048Z,20.80
2022-09-06T02:27:56.879Z,20.90
2022-09-06T02:30:23.948Z,20.80
2022-09-06T02:33:01.080Z,20.80
2022-09-06T02:35:28.514Z,20.80
2022-09-06T02:37:56.391Z,20.70
2022-09-06T02:40:23.646Z,20.80
2022-09-06T02:42:50.437Z,20.80
2022-09-06T02:45:17.229Z,20.80
2022-09-06T02:47:44.125Z,20.70
2022-09-06T02:50:10.877Z,20.70
2022-09-06T02:52:37.720Z,20.70
2022-09-06T02:55:05.107Z,20.60
2022-09-06T02:57:31.851Z,20.60
2022-09-06T02:59:58.708Z,20.60
2022-09-06T03:02:26.080Z,20.60
2022-09-06T03:04:52.938Z,20.50
2022-09-06T03:07:19.727Z,20.40
2022-09-06T03:09:46.549Z,20.40
2022-09-06T03:12:13.371Z,20.50
2022-09-06T03:14:41.305Z,20.50
2022-09-06T03:17:08.225Z,20.50
2022-09-06T03:19:35.040Z,20.50
2022-09-06T03:22:01.885Z,20.40
2022-09-06T03:24:28.758Z,20.50
2022-09-06T03:26:55.752Z,20.50
2022-09-06T03:29:22.563Z,20.70
2022-09-06T03:31:49.330Z,20.70
2022-09-06T03:34:16.062Z,20.70
2022-09-06T03:36:42.934Z,20.80
2022-09-06T03:39:09.799Z,20.90
2022-09-06T03:41:36.885Z,20.90
2022-09-06T03:44:04.114Z,20.90
2022-09-06T03:46:30.999Z,21.00
2022-09-06T03:48:59.188Z,21.00
2022-09-06T03:51:26.185Z,21.00
2022-09-06T03:53:53.068Z,21.00
2022-09-06T03:56:20.100Z,21.00
2022-09-06T03:58:47.121Z,21.00
2022-09-06T04:01:14.294Z,21.10
2022-09-06T04:03:41.400Z,21.10
2022-09-06T04:06:08.800Z,21.10
2022-09-06T04:08:36.611Z,21.00
2022-09-06T04:11:03.633Z,21.00
2022-09-06T04:13:31.312Z,21.00
2022-09-06T04:15:58.383Z,20.90
2022-09-06T04:18:26.153Z,20.90
2022-09-06T04:20:55.988Z,20.90
2022-09-06T04:23:24.827Z,21.00
2022-09-06T04:25:54.087Z,21.00
2022-09-06T04:28:21.691Z,21.10
2022-09-06T04:31:03.306Z,21.10
2022-09-06T04:33:33.153Z,21.10
2022-09-06T04:36:02.146Z,21.20
2022-09-06T04:38:31.512Z,21.20
2022-09-06T04:40:58.323Z,21.20
2022-09-06T04:43:25.506Z,21.20
2022-09-06T04:45:52.429Z,21.20
2022-09-06T04:48:19.350Z,21.20
2022-09-06T04:50:46.126Z,21.10
2022-09-06T04:53:12.980Z,21.10
2022-09-06T04:55:39.700Z,21.20
2022-09-06T04:58:06.454Z,21.20
2022-09-06T05:00:35.131Z,21.20
2022-09-06T05:03:02.000Z,21.20
2022-09-06T05:05:28.911Z,21.20
2022-09-06T05:07:56.448Z,21.20
2022-09-06T05:10:24.074Z,21.20
2022-09-06T05:12:53.105Z,21.20
2022-09-06T05:15:22.149Z,21.20
2022-09-06T05:17:48.955Z,21.30
2022-09-06T05:20:16.714Z,21.40
2022-09-06T05:22:43.705Z,21.40
2022-09-06T05:25:11.049Z,21.50
2022-09-06T05:27:37.822Z,21.50
2022-09-06T05:30:04.959Z,21.40
2022-09-06T05:32:31.819Z,21.40
2022-09-06T05:34:58.643Z,21.30
2022-09-06T05:37:25.568Z,21.20
2022-09-06T05:39:52.475Z,21.10
2022-09-06T05:42:19.583Z,20.90
2022-09-06T05:44:46.481Z,20.90
2022-09-06T05:47:13.617Z,20.90
2022-09-06T05:49:40.551Z,20.90
2022-09-06T05:52:07.388Z,20.90
2022-09-06T05:54:34.250Z,20.90
2022-09-06T05:57:01.048Z,20.90
2022-09-06T05:59:28.132Z,21.00
2022-09-06T06:01:55.401Z,21.00
2022-09-06T06:04:22.698Z,21.10
2022-09-06T06:06:49.595Z,21.10
2022-09-06T06:09:17.593Z,21.20
2022-09-06T06:11:44.575Z,21.40
2022-09-06T06:14:11.472Z,21.50
2022-09-06T06:16:38.455Z,21.50
2022-09-06T06:19:05.426Z,21.60
2022-09-06T06:21:33.751Z,21.70
2022-09-06T06:24:03.400Z,21.70
2022-09-06T06:26:36.027Z,21.80
2022-09-06T06:29:03.914Z,21.80
2022-09-06T06:31:33.116Z,21.80
2022-09-06T06:34:02.850Z,21.80
2022-09-06T06:36:31.629Z,21.80
2022-09-06T06:38:59.587Z,21.90
2022-09-06T06:41:29.500Z,21.90
2022-09-06T06:43:58.851Z,21.90
2022-09-06T06:46:28.408Z,22.00
2022-09-06T06:48:55.497Z,22.00
2022-09-06T06:51:28.380Z,22.00
2022-09-06T06:53:56.991Z,22.10
2022-09-06T06:56:25.528Z,22.10
2022-09-06T06:58:54.622Z,22.00
2022-09-06T07:01:22.699Z,22.10
2022-09-06T07:03:50.034Z,22.10
2022-09-06T07:06:18.214Z,22.10
2022-09-06T07:08:46.219Z,22.10
2022-09-06T07:11:19.476Z,22.10
2022-09-06T07:13:48.551Z,22.20
2022-09-06T07:16:20.390Z,22.30
2022-09-06T07:18:50.619Z,22.40
2022-09-06T07:24:09.536Z,22.40
2022-09-06T07:26:39.161Z,22.40
2022-09-06T07:29:07.498Z,22.50
2022-09-06T07:34:25.258Z,22.60
2022-09-06T07:36:53.700Z,22.60
2022-09-06T07:39:20.560Z,22.60
2022-09-06T07:41:47.497Z,22.60
2022-09-06T07:44:14.499Z,22.70
2022-09-06T07:46:41.573Z,22.70
2022-09-06T07:49:08.426Z,22.70
2022-09-06T07:51:35.459Z,22.80
2022-09-06T07:54:26.163Z,22.90
2022-09-06T07:56:49.510Z,22.90
2022-09-06T07:59:16.428Z,23.00
2022-09-06T08:01:43.523Z,23.00
2022-09-06T08:04:14.745Z,23.10
2022-09-06T08:09:30.791Z,23.20
2022-09-06T08:11:57.537Z,23.30
2022-09-06T08:14:24.663Z,23.30
2022-09-06T08:16:51.559Z,23.40
2022-09-06T08:19:18.638Z,23.50
2022-09-06T08:21:45.511Z,23.60
2022-09-06T08:24:12.464Z,23.70
2022-09-06T08:26:43.226Z,23.80
2022-09-06T08:29:11.460Z,23.80
2022-09-06T08:31:41.505Z,23.80
2022-09-06T08:34:09.135Z,23.80
2022-09-06T08:36:36.198Z,23.80
2022-09-06T08:39:05.891Z,23.90
2022-09-06T08:42:05.828Z,23.90
2022-09-06T08:44:56.397Z,23.90
2022-09-06T08:47:24.531Z,24.00
2022-09-06T08:49:52.939Z,24.10
2022-09-06T08:52:49.750Z,24.10
2022-09-06T08:55:39.120Z,24.20
2022-09-06T08:58:13.478Z,24.20
2022-09-06T09:00:42.709Z,24.20
2022-09-06T09:03:16.793Z,24.30
2022-09-06T09:05:48.891Z,24.30
2022-09-06T09:08:41.573Z,24.40
2022-09-06T09:11:18.713Z,24.40
2022-09-06T09:14:00.638Z,24.40
2022-09-06T09:16:27.967Z,24.50
2022-09-06T09:19:01.593Z,24.50
2022-09-06T09:21:31.213Z,24.50
2022-09-06T09:24:07.625Z,24.50
2022-09-06T09:27:13.451Z,24.60
2022-09-06T09:32:45.399Z,24.80
2022-09-06T09:35:20.645Z,24.80
2022-09-06T09:37:49.684Z,24.90
2022-09-06T09:40:25.982Z,25.00
2022-09-06T09:42:55.147Z,25.10
2022-09-06T09:45:25.293Z,25.10
2022-09-06T09:47:52.203Z,25.10
2022-09-06T09:50:29.614Z,25.10
2022-09-06T09:53:06.811Z,25.10
2022-09-06T09:55:33.850Z,25.10
2022-09-06T09:58:01.067Z,25.10
2022-09-06T10:00:43.138Z,25.10
2022-09-06T10:03:15.183Z,25.10
2022-09-06T10:05:43.172Z,25.10
2022-09-06T10:08:12.592Z,25.10
2022-09-06T10:10:47.980Z,25.10
2022-09-06T10:13:25.459Z,25.10
2022-09-06T10:15:54.073Z,25.10
2022-09-06T10:18:20.890Z,25.10
2022-09-06T10:20:53.449Z,25.10
2022-09-06T10:26:56.625Z,25.10
2022-09-06T10:29:35.624Z,25.20
2022-09-06T10:32:39.458Z,25.10
2022-09-06T10:35:27.996Z,25.10
2022-09-06T10:38:07.559Z,25.10
2022-09-06T10:40:41.355Z,25.10
2022-09-06T10:43:17.071Z,25.10
2022-09-06T10:45:54.829Z,25.10
2022-09-06T10:48:26.000Z,25.20
2022-09-06T10:51:06.187Z,25.20
2022-09-06T10:53:48.737Z,25.30
2022-09-06T10:56:38.271Z,25.30
2022-09-06T11:02:11.883Z,25.50
2022-09-06T11:07:31.131Z,25.60
2022-09-06T11:10:16.221Z,25.70
2022-09-06T11:12:49.575Z,25.80
2022-09-06T11:15:18.761Z,25.80
2022-09-06T11:17:48.654Z,25.90
2022-09-06T11:20:37.064Z,25.90
2022-09-06T11:23:19.169Z,25.90
2022-09-06T11:26:11.782Z,25.90
2022-09-06T11:29:00.402Z,25.90
2022-09-06T11:34:26.519Z,25.90
2022-09-06T11:36:55.653Z,26.00
2022-09-06T11:42:38.999Z,26.10
2022-09-06T11:45:06.534Z,26.20
2022-09-06T11:47:43.471Z,26.20
2022-09-06T11:50:22.674Z,26.20
2022-09-06T11:52:55.456Z,26.10
2022-09-06T11:55:25.198Z,26.00
2022-09-06T11:57:58.103Z,26.00
2022-09-06T12:00:25.714Z,26.00
2022-09-06T12:02:53.220Z,26.10
2022-09-06T12:05:29.518Z,26.20
2022-09-06T12:08:24.698Z,26.20
2022-09-06T12:10:58.922Z,26.10
2022-09-06T12:13:50.718Z,26.20
2022-09-06T12:16:18.518Z,26.10
2022-09-06T12:18:48.333Z,26.00
2022-09-06T12:21:46.473Z,26.00
2022-09-06T12:24:35.324Z,26.00
2022-09-06T12:27:16.303Z,26.00
2022-09-06T12:30:13.999Z,26.00
2022-09-06T12:32:49.168Z,26.00
2022-09-06T12:38:14.204Z,26.00
2022-09-06T12:40:48.760Z,26.00
2022-09-06T12:43:17.518Z,26.10
2022-09-06T12:45:50.848Z,26.20
2022-09-06T12:48:41.196Z,26.20
2022-09-06T12:51:19.347Z,26.20
2022-09-06T12:53:54.026Z,26.10
2022-09-06T12:56:23.104Z,26.10
2022-09-06T12:58:50.543Z,26.10
2022-09-06T13:01:31.167Z,26.00
2022-09-06T13:04:03.364Z,26.10
2022-09-06T13:06:34.659Z,26.00
2022-09-06T13:09:02.337Z,26.10
2022-09-06T13:11:38.708Z,26.10
2022-09-06T13:14:22.125Z,26.00
2022-09-06T13:16:52.129Z,26.10
2022-09-06T13:19:34.287Z,26.00
2022-09-06T13:22:03.903Z,26.00
2022-09-06T13:24:36.790Z,26.00
2022-09-06T13:27:24.051Z,25.90
2022-09-06T13:30:07.326Z,25.90
2022-09-06T13:32:35.285Z,25.90
2022-09-06T13:35:03.925Z,25.90
2022-09-06T13:37:33.900Z,25.90
2022-09-06T13:40:05.173Z,25.90
2022-09-06T13:42:33.582Z,25.80
2022-09-06T13:45:26.331Z,25.80
2022-09-06T13:48:03.525Z,25.80
2022-09-06T13:50:41.335Z,25.80
2022-09-06T13:53:08.682Z,25.80
2022-09-06T13:55:35.577Z,25.80
2022-09-06T13:58:04.163Z,25.80
2022-09-06T14:00:31.315Z,25.70
2022-09-06T14:02:59.008Z,25.70
2022-09-06T14:05:25.935Z,25.70
2022-09-06T14:07:52.769Z,25.70
2022-09-06T14:10:22.199Z,25.60
2022-09-06T14:12:49.048Z,25.60
2022-09-06T14:15:17.068Z,25.60
2022-09-06T14:17:43.924Z,25.60
2022-09-06T14:20:11.064Z,25.70
2022-09-06T14:22:37.934Z,25.70
2022-09-06T14:25:07.039Z,25.70
2022-09-06T14:27:35.428Z,25.70
2022-09-06T14:30:02.667Z,25.70
2022-09-06T14:32:29.516Z,25.70
2022-09-06T14:34:56.668Z,25.60
2022-09-06T14:37:23.429Z,25.60
2022-09-06T14:39:50.441Z,25.60
2022-09-06T14:42:17.289Z,25.60
2022-09-06T14:44:44.140Z,25.60
2022-09-06T14:47:12.135Z,25.70
2022-09-06T14:49:39.033Z,25.80
2022-09-06T14:52:06.209Z,25.70
2022-09-06T14:54:33.289Z,25.80
2022-09-06T14:57:00.328Z,25.70
2022-09-06T14:59:27.325Z,25.70
2022-09-06T15:01:54.215Z,25.70
2022-09-06T15:04:21.114Z,25.60
2022-09-06T15:06:48.391Z,25.60
2022-09-06T15:09:16.868Z,25.70
2022-09-06T15:11:47.633Z,25.70
2022-09-06T15:14:23.183Z,25.70
2022-09-06T15:16:55.758Z,25.70
2022-09-06T15:19:24.897Z,25.70
2022-09-06T15:21:51.931Z,25.70
2022-09-06T15:24:19.795Z,25.70
2022-09-06T15:26:46.945Z,25.70
2022-09-06T15:29:14.862Z,25.60
2022-09-06T15:31:42.631Z,25.60
2022-09-06T15:34:10.283Z,25.60
2022-09-06T15:36:37.738Z,25.60
2022-09-06T15:39:05.909Z,25.60
2022-09-06T15:41:36.182Z,25.60
2022-09-06T15:44:11.885Z,25.60
2022-09-06T15:46:43.677Z,25.50
2022-09-06T15:49:14.057Z,25.50
2022-09-06T15:51:42.888Z,25.50
2022-09-06T15:54:11.920Z,25.50
2022-09-06T15:56:38.802Z,25.50
2022-09-06T15:59:05.808Z,25.50
2022-09-06T16:01:34.140Z,25.50
2022-09-06T16:04:06.088Z,25.50
2022-09-06T16:06:39.759Z,25.60
2022-09-06T16:09:14.356Z,25.60
2022-09-06T16:11:42.201Z,25.70
2022-09-06T16:14:12.684Z,25.80
2022-09-06T16:16:40.452Z,25.80
2022-09-06T16:19:07.862Z,25.70
2022-09-06T16:21:37.163Z,25.70
2022-09-06T16:24:09.201Z,25.70
2022-09-06T16:26:38.914Z,25.70
2022-09-06T16:29:07.640Z,25.60
2022-09-06T16:31:39.772Z,25.60
2022-09-06T16:34:08.181Z,25.50
2022-09-06T16:36:34.971Z,25.50
2022-09-06T16:39:01.955Z,25.50
2022-09-06T16:41:40.368Z,25.50
2022-09-06T16:44:09.073Z,25.50
2022-09-06T16:46:36.236Z,25.50
2022-09-06T16:49:04.616Z,25.50
2022-09-06T16:51:32.719Z,25.50
2022-09-06T16:54:00.775Z,25.50
2022-09-06T16:56:31.875Z,25.50
2022-09-06T16:59:01.147Z,25.40
2022-09-06T17:01:29.895Z,25.40
2022-09-06T17:03:57.765Z,25.40
2022-09-06T17:06:25.117Z,25.40
2022-09-06T17:08:52.165Z,25.40
2022-09-06T17:11:20.893Z,25.40
2022-09-06T17:13:50.292Z,25.40
2022-09-06T17:16:37.145Z,25.40
2022-09-06T17:19:04.818Z,25.30
2022-09-06T17:21:32.463Z,25.30
2022-09-06T17:24:03.078Z,25.30
2022-09-06T17:26:30.980Z,25.30
2022-09-06T17:28:58.331Z,25.30
2022-09-06T17:31:26.295Z,25.30
2022-09-06T17:33:53.682Z,25.30
2022-09-06T17:36:25.796Z,25.30
2022-09-06T17:38:59.088Z,25.30
2022-09-06T17:41:29.666Z,25.20
2022-09-06T17:43:58.733Z,25.20
2022-09-06T17:46:29.134Z,25.20
2022-09-06T17:48:56.929Z,25.20
2022-09-06T17:51:25.104Z,25.20
2022-09-06T17:53:52.788Z,25.20
2022-09-06T17:56:20.750Z,25.10
2022-09-06T17:58:55.421Z,25.10
2022-09-06T18:01:24.182Z,25.10
2022-09-06T18:03:51.141Z,25.10
2022-09-06T18:06:22.838Z,25.10
2022-09-06T18:08:52.014Z,25.10
2022-09-06T18:11:24.838Z,25.10
2022-09-06T18:13:57.516Z,25.00
2022-09-06T18:16:25.380Z,25.00
2022-09-06T18:18:54.529Z,25.00
2022-09-06T18:21:21.708Z,24.90
2022-09-06T18:23:48.542Z,24.90
2022-09-06T18:26:16.919Z,24.90
2022-09-06T18:28:44.418Z,24.90
2022-09-06T18:31:16.448Z,24.90
2022-09-06T18:33:43.786Z,24.90
2022-09-06T18:36:12.971Z,24.80
2022-09-06T18:38:41.058Z,24.80
2022-09-06T18:41:09.460Z,23.40
2022-09-06T18:43:39.864Z,24.80
2022-09-06T18:46:15.579Z,24.80
2022-09-06T18:48:42.466Z,24.80
2022-09-06T18:51:13.288Z,24.80
2022-09-06T18:53:44.755Z,24.80
2022-09-06T18:56:13.658Z,24.80
2022-09-06T18:58:41.517Z,24.80
2022-09-06T19:01:11.512Z,24.70
2022-09-06T19:03:39.708Z,24.70
2022-09-06T19:06:18.679Z,24.70
2022-09-06T19:08:46.998Z,24.70
2022-09-06T19:11:19.296Z,24.70
2022-09-06T19:13:49.741Z,24.60
2022-09-06T19:16:17.321Z,24.70
2022-09-06T19:18:44.557Z,24.60
2022-09-06T19:21:13.425Z,24.60
2022-09-06T19:23:44.094Z,24.60
2022-09-06T19:26:17.045Z,24.60
2022-09-06T19:28:54.930Z,24.50
2022-09-06T19:31:23.183Z,24.50
2022-09-06T19:33:51.278Z,24.50
2022-09-06T19:36:19.765Z,24.40
2022-09-06T19:39:03.067Z,24.30
2022-09-06T19:41:32.172Z,24.30
2022-09-06T19:43:59.305Z,24.30
2022-09-06T19:46:27.618Z,24.30
2022-09-06T19:48:56.176Z,24.30
2022-09-06T19:51:24.116Z,24.30
2022-09-06T19:53:53.473Z,24.20
2022-09-06T19:56:33.881Z,24.20
2022-09-06T19:59:03.724Z,24.10
2022-09-06T20:01:32.774Z,24.10
2022-09-06T20:04:05.008Z,24.10
2022-09-06T20:06:31.951Z,24.10
2022-09-06T20:09:00.323Z,23.50
2022-09-06T20:11:29.552Z,24.10
2022-09-06T20:13:56.900Z,24.10
2022-09-06T20:16:24.984Z,24.10
2022-09-06T20:18:52.750Z,24.10
2022-09-06T20:21:21.150Z,24.10
2022-09-06T20:23:52.884Z,24.10
2022-09-06T20:26:23.047Z,24.00
2022-09-06T20:29:01.359Z,24.00
2022-09-06T20:31:30.008Z,24.00
2022-09-06T20:33:59.531Z,23.90
2022-09-06T20:36:26.798Z,23.90
2022-09-06T20:38:53.678Z,23.90
2022-09-06T20:41:23.699Z,23.80
2022-09-06T20:43:55.993Z,23.80
2022-09-06T20:46:29.111Z,23.80
2022-09-06T20:48:58.014Z,23.80
2022-09-06T20:51:25.455Z,23.70
2022-09-06T20:53:55.672Z,23.80
2022-09-06T20:56:25.307Z,23.70
2022-09-06T20:58:57.329Z,23.80
2022-09-06T21:01:26.195Z,23.80
2022-09-06T21:03:55.668Z,23.80
2022-09-06T21:06:24.218Z,23.80
2022-09-06T21:08:52.037Z,23.70
2022-09-06T21:11:19.503Z,23.70
2022-09-06T21:13:58.336Z,23.60
2022-09-06T21:16:29.121Z,23.60
2022-09-06T21:19:01.786Z,23.60
2022-09-06T21:21:30.275Z,23.60
2022-09-06T21:23:57.179Z,23.60
2022-09-06T21:26:24.108Z,23.50
2022-09-06T21:28:51.276Z,23.50
2022-09-06T21:31:23.662Z,23.60
2022-09-06T21:33:55.153Z,23.50
2022-09-06T21:36:24.126Z,23.40
2022-09-06T21:38:55.509Z,23.50
2022-09-06T21:41:23.479Z,23.50
2022-09-06T21:43:54.585Z,23.50
2022-09-06T21:46:23.122Z,23.50
2022-09-06T21:48:52.779Z,23.50
2022-09-06T21:51:22.272Z,23.50
2022-09-06T21:53:50.687Z,23.50
2022-09-06T21:56:19.717Z,23.50
2022-09-06T21:58:50.616Z,23.40
2022-09-06T22:01:17.497Z,23.40
2022-09-06T22:03:44.702Z,23.40
2022-09-06T22:06:14.612Z,23.40
2022-09-06T22:08:44.697Z,23.40
2022-09-06T22:11:21.185Z,24.70
2022-09-06T22:13:48.291Z,23.40
2022-09-06T22:16:17.909Z,23.30
2022-09-06T22:18:45.393Z,23.30
2022-09-06T22:21:20.038Z,23.30
2022-09-06T22:23:55.389Z,23.30
2022-09-06T22:26:23.490Z,23.20
2022-09-06T22:28:55.453Z,23.20
2022-09-06T22:31:23.160Z,23.20
2022-09-06T22:33:50.862Z,23.20
2022-09-06T22:36:17.992Z,23.30
2022-09-06T22:38:45.138Z,23.30
2022-09-06T22:41:12.700Z,23.30
2022-09-06T22:43:39.508Z,23.30
2022-09-06T22:46:09.977Z,23.30
2022-09-06T22:48:37.330Z,23.30
2022-09-06T22:51:06.121Z,23.20
2022-09-06T22:53:33.519Z,23.20
2022-09-06T22:56:01.413Z,23.20
2022-09-06T22:58:28.247Z,23.20
2022-09-06T23:00:55.841Z,23.10
2022-09-06T23:03:22.871Z,23.10
2022-09-06T23:05:50.031Z,23.20
2022-09-06T23:08:16.819Z,23.10
2022-09-06T23:10:44.535Z,23.10
2022-09-06T23:13:11.702Z,23.10
2022-09-06T23:15:40.712Z,23.10
2022-09-06T23:18:08.558Z,23.10
2022-09-06T23:20:37.069Z,23.10
2022-09-06T23:23:05.018Z,23.10
2022-09-06T23:25:32.143Z,23.10
2022-09-06T23:28:00.356Z,23.10
2022-09-06T23:30:27.271Z,23.10
2022-09-06T23:32:56.376Z,23.00
2022-09-06T23:35:23.957Z,23.00
2022-09-06T23:37:51.378Z,23.00
2022-09-06T23:40:19.066Z,22.90
2022-09-06T23:42:46.173Z,22.90
2022-09-06T23:45:13.590Z,22.80
2022-09-06T23:47:41.221Z,22.70
2022-09-06T23:50:08.997Z,22.70
2022-09-06T23:52:35.883Z,22.70
2022-09-06T23:55:03.097Z,22.70
2022-09-06T23:57:29.926Z,22.70
2022-09-06T23:59:56.660Z,22.70
